Burnside, Louisiana
Current Conditions -  °F | °C
As of 4:55 PM on Thursday 27 Nov 2014 (Local Time) from KL38 Reporting Station
Clear Clear  
Wind Chill: 57°   Ceiling: Unl
Heat Index: 57°   Visibility: 10mi
Dew Point: 31°   Wind: 3mph
Humidity: 38%   Direction: 340°NNW
Pressure: 30.41"   Gusts: NA
Location:  30.14°N, 90.92°W
Report Text: KL38 272255Z AUTO 34003KT 10SM CLR 14/00 A3041 RMK AO2 T01381003
Loading
Personal Weather Stations






























Interactive Weather Map New forecast layout! Learn more

10-Day Weather Forecast

Advertisements
Track Severe Weather on mobile